Terminal Aerodrome Forecast
Issued by NWS Cleveland, OH

Home | Current Version | Previous Version | Graphics & Text | Print | Product List | Glossary Off
Versions: 1 2 3 4 5 6 7 8 9 10 11 12 13 14 15 16 17 18 19 20 21 22 23 24 25

000
FTUS41 KCLE 041100
TAFYNG
TAF
KYNG 041140Z 0412/0512 27008KT P6SM OVC015
     FM042300 30008KT P6SM OVC010 PROB30 0501/0505 3SM -SN
     FM050600 34006KT P6SM OVC022=

USA.gov is the U.S. government's official web portal to all federal, state and local government web resources and services.